createdAt,value
2019-05-23T00:00:57.716Z,71.60
2019-05-23T00:06:10.481Z,72.80
2019-05-23T00:11:32.992Z,72.30
2019-05-23T00:16:38.477Z,72.60
2019-05-23T00:21:43.106Z,73.50
2019-05-23T00:26:48.528Z,75.50
2019-05-23T00:31:59.635Z,75.10
2019-05-23T00:37:09.134Z,75.00
2019-05-23T00:42:13.755Z,76.30
2019-05-23T00:47:19.775Z,76.60
2019-05-23T00:52:24.467Z,78.40
2019-05-23T00:57:29.295Z,78.70
2019-05-23T01:02:34.599Z,81.20
2019-05-23T01:07:40.415Z,82.40
2019-05-23T01:12:47.362Z,83.00
2019-05-23T01:17:53.683Z,84.20
2019-05-23T01:23:00.172Z,84.90
2019-05-23T01:28:04.471Z,84.80
2019-05-23T01:33:10.408Z,85.70
2019-05-23T01:38:16.210Z,84.20
2019-05-23T01:43:21.149Z,86.00
2019-05-23T01:48:25.771Z,85.40
2019-05-23T01:53:30.616Z,87.60
2019-05-23T01:58:35.177Z,87.40
2019-05-23T02:03:41.341Z,87.00
2019-05-23T02:08:45.776Z,87.80
2019-05-23T02:13:50.059Z,87.90
2019-05-23T02:18:55.083Z,88.20
2019-05-23T02:24:00.527Z,88.40
2019-05-23T02:29:04.984Z,88.10
2019-05-23T02:34:09.494Z,88.20
2019-05-23T02:39:39.115Z,88.90
2019-05-23T02:44:44.987Z,90.40
2019-05-23T02:49:52.171Z,90.40
2019-05-23T02:54:56.712Z,91.50
2019-05-23T03:00:13.700Z,91.80
2019-05-23T03:05:21.607Z,90.60
2019-05-23T03:10:28.281Z,91.70
2019-05-23T03:15:34.796Z,92.00
2019-05-23T03:20:40.186Z,92.50
2019-05-23T03:26:24.012Z,92.50
2019-05-23T03:31:37.349Z,92.30
2019-05-23T03:36:43.312Z,93.00
2019-05-23T03:41:48.203Z,93.20
2019-05-23T03:46:55.150Z,93.30
2019-05-23T03:52:01.138Z,92.80
2019-05-23T03:57:05.609Z,92.00
2019-05-23T04:02:12.446Z,92.40
2019-05-23T04:07:17.467Z,93.00
2019-05-23T04:12:22.339Z,93.50
2019-05-23T04:17:26.666Z,93.70
2019-05-23T04:22:31.371Z,93.60
2019-05-23T04:27:35.791Z,93.30
2019-05-23T04:32:41.047Z,93.90
2019-05-23T04:37:47.192Z,93.80
2019-05-23T04:42:51.807Z,93.60
2019-05-23T04:47:56.365Z,93.80
2019-05-23T04:53:01.260Z,94.00
2019-05-23T04:58:06.443Z,94.30
2019-05-23T05:03:11.489Z,95.00
2019-05-23T05:08:16.304Z,95.50
2019-05-23T05:13:20.748Z,95.70
2019-05-23T05:18:26.104Z,95.50
2019-05-23T05:23:30.470Z,95.10
2019-05-23T05:28:35.151Z,95.40
2019-05-23T05:33:39.551Z,95.40
2019-05-23T05:38:44.599Z,95.50
2019-05-23T05:43:49.247Z,95.40
2019-05-23T05:48:54.189Z,95.50
2019-05-23T05:53:59.877Z,95.70
2019-05-23T05:59:04.375Z,95.80
2019-05-23T06:04:11.654Z,94.90
2019-05-23T06:09:21.170Z,93.90
2019-05-23T06:14:25.596Z,94.40
2019-05-23T06:19:31.057Z,94.00
2019-05-23T06:24:44.612Z,94.30
2019-05-23T06:29:41.461Z,94.50
2019-05-23T06:34:45.784Z,93.90
2019-05-23T06:39:51.672Z,93.00
2019-05-23T06:44:56.403Z,92.10
2019-05-23T06:50:01.025Z,91.50
2019-05-23T06:55:05.604Z,88.90
2019-05-23T07:00:10.351Z,88.50
2019-05-23T07:05:18.223Z,87.40
2019-05-23T07:10:23.029Z,83.30
2019-05-23T07:15:29.170Z,81.10
2019-05-23T07:20:33.479Z,80.20
2019-05-23T07:25:38.647Z,78.00
2019-05-23T07:30:42.979Z,78.20
2019-05-23T07:35:47.520Z,80.00
2019-05-23T07:40:52.165Z,81.90
2019-05-23T07:45:57.740Z,76.80
2019-05-23T07:51:02.520Z,73.50
2019-05-23T07:56:08.952Z,73.80
2019-05-23T08:01:15.260Z,79.80
2019-05-23T08:06:19.916Z,80.70
2019-05-23T08:11:24.322Z,71.20
2019-05-23T08:16:28.773Z,65.40
2019-05-23T08:21:33.371Z,66.90
2019-05-23T08:26:39.036Z,68.50
2019-05-23T08:31:43.372Z,67.70
2019-05-23T08:36:47.851Z,60.40
2019-05-23T08:41:52.314Z,59.80
2019-05-23T08:46:56.747Z,62.50
2019-05-23T08:52:01.261Z,54.40
2019-05-23T08:57:06.884Z,51.70
2019-05-23T09:02:12.254Z,54.10
2019-05-23T09:07:17.060Z,50.80
2019-05-23T09:12:21.705Z,52.90
2019-05-23T09:17:26.037Z,56.80
2019-05-23T09:22:30.529Z,54.40
2019-05-23T09:27:34.907Z,47.90
2019-05-23T09:32:39.272Z,46.30
2019-05-23T09:37:43.930Z,45.60
2019-05-23T09:42:48.258Z,46.70
2019-05-23T09:47:52.794Z,46.80
2019-05-23T09:52:57.181Z,44.50
2019-05-23T09:58:01.571Z,43.20
2019-05-23T10:03:06.126Z,43.50
2019-05-23T10:08:13.930Z,42.90
2019-05-23T10:13:18.321Z,42.10
2019-05-23T10:18:22.752Z,42.30
2019-05-23T10:23:27.065Z,44.00
2019-05-23T10:28:31.499Z,45.40
2019-05-23T10:33:36.257Z,42.80
2019-05-23T10:38:40.951Z,39.90
2019-05-23T10:43:45.533Z,40.50
2019-05-23T10:48:50.116Z,39.30
2019-05-23T10:53:54.429Z,40.80
2019-05-23T10:58:58.749Z,39.40
2019-05-23T11:04:04.157Z,41.20
2019-05-23T11:09:09.203Z,38.70
2019-05-23T11:14:14.275Z,37.20
2019-05-23T11:19:18.908Z,38.80
2019-05-23T11:24:23.549Z,38.10
2019-05-23T11:29:28.245Z,38.00
2019-05-23T11:34:37.645Z,37.10
2019-05-23T11:39:49.311Z,39.10
2019-05-23T11:44:48.269Z,37.30
2019-05-23T11:49:54.079Z,34.50
2019-05-23T11:54:58.550Z,38.60
2019-05-23T12:00:06.685Z,37.20
2019-05-23T12:05:18.869Z,36.50
2019-05-23T12:10:24.379Z,36.00
2019-05-23T12:15:30.363Z,34.80
2019-05-23T12:20:34.856Z,34.70
2019-05-23T12:25:40.850Z,33.00
2019-05-23T12:30:45.575Z,34.30
2019-05-23T12:35:50.620Z,34.50
2019-05-23T12:40:56.039Z,35.80
2019-05-23T12:46:03.980Z,34.60
2019-05-23T12:51:09.291Z,34.40
2019-05-23T12:56:13.736Z,34.80
2019-05-23T13:01:18.899Z,36.60
2019-05-23T13:06:23.400Z,34.80
2019-05-23T13:11:27.949Z,32.50
2019-05-23T13:16:32.302Z,33.30
2019-05-23T13:21:36.616Z,35.40
2019-05-23T13:26:41.354Z,35.10
2019-05-23T13:31:45.758Z,33.10
2019-05-23T13:36:50.129Z,32.80
2019-05-23T13:41:54.646Z,32.90
2019-05-23T13:46:59.188Z,35.00
2019-05-23T13:52:03.516Z,33.20
2019-05-23T13:57:08.953Z,33.00
2019-05-23T14:02:13.328Z,33.00
2019-05-23T14:07:18.973Z,34.20
2019-05-23T14:12:23.818Z,34.90
2019-05-23T14:17:33.859Z,33.40
2019-05-23T14:22:42.277Z,33.70
2019-05-23T14:28:09.009Z,34.20
2019-05-23T14:33:30.975Z,34.80
2019-05-23T14:38:36.511Z,34.70
2019-05-23T14:43:41.144Z,34.10
2019-05-23T14:49:02.653Z,33.80
2019-05-23T14:54:11.526Z,32.60
2019-05-23T14:59:16.063Z,33.30
2019-05-23T15:04:21.621Z,34.00
2019-05-23T15:09:26.623Z,32.20
2019-05-23T15:14:34.848Z,32.50
2019-05-23T15:19:44.896Z,31.90
2019-05-23T15:24:45.735Z,32.10
2019-05-23T15:29:53.251Z,32.30
2019-05-23T15:34:57.591Z,32.30
2019-05-23T15:40:02.003Z,32.80
2019-05-23T15:45:06.814Z,33.30
2019-05-23T15:50:14.074Z,33.50
2019-05-23T15:55:30.503Z,32.60
2019-05-23T16:00:57.601Z,32.80
2019-05-23T16:06:03.083Z,33.10
2019-05-23T16:11:07.612Z,33.50
2019-05-23T16:16:11.924Z,34.50
2019-05-23T16:21:17.069Z,34.10
2019-05-23T16:26:21.452Z,33.70
2019-05-23T16:31:25.760Z,34.80
2019-05-23T16:36:30.026Z,34.00
2019-05-23T16:41:34.375Z,35.40
2019-05-23T16:46:39.208Z,35.30
2019-05-23T16:51:43.578Z,35.40
2019-05-23T16:56:58.233Z,35.80
2019-05-23T17:02:12.563Z,35.40
2019-05-23T17:07:51.116Z,35.80
2019-05-23T17:13:06.172Z,36.00
2019-05-23T17:18:32.945Z,36.60
2019-05-23T17:23:54.436Z,36.80
2019-05-23T17:28:59.005Z,36.50
2019-05-23T17:34:04.038Z,36.60
2019-05-23T17:39:14.645Z,36.20
2019-05-23T17:44:18.516Z,36.70
2019-05-23T17:49:23.731Z,36.90
2019-05-23T17:54:28.261Z,36.40
2019-05-23T17:59:32.889Z,36.40
2019-05-23T18:04:37.760Z,36.20
2019-05-23T18:09:42.407Z,36.40
2019-05-23T18:14:47.079Z,37.00
2019-05-23T18:19:51.734Z,37.00
2019-05-23T18:24:59.631Z,39.80
2019-05-23T18:30:08.823Z,39.70
2019-05-23T18:35:20.591Z,39.60
2019-05-23T18:40:27.251Z,39.20
2019-05-23T18:45:33.223Z,41.60
2019-05-23T18:50:38.091Z,42.40
2019-05-23T18:55:42.475Z,41.50
2019-05-23T19:01:08.097Z,42.60
2019-05-23T19:06:12.548Z,42.70
2019-05-23T19:11:21.160Z,44.00
2019-05-23T19:16:23.706Z,44.70
2019-05-23T19:21:29.625Z,45.30
2019-05-23T19:26:34.457Z,45.70
2019-05-23T19:31:39.363Z,45.80
2019-05-23T19:36:43.801Z,44.60
2019-05-23T19:41:48.187Z,42.60
2019-05-23T19:46:52.705Z,42.00
2019-05-23T19:52:17.185Z,43.10
2019-05-23T19:57:21.992Z,42.70
2019-05-23T20:02:48.351Z,42.80
2019-05-23T20:07:52.815Z,41.30
2019-05-23T20:12:57.412Z,41.20
2019-05-23T20:18:01.860Z,41.00
2019-05-23T20:23:06.654Z,41.00
2019-05-23T20:28:11.273Z,40.40
2019-05-23T20:33:16.024Z,39.20
2019-05-23T20:38:21.316Z,39.60
2019-05-23T20:43:25.779Z,39.10
2019-05-23T20:48:30.514Z,39.40
2019-05-23T20:53:39.479Z,38.20
2019-05-23T20:58:43.892Z,38.00
2019-05-23T21:03:49.515Z,38.50
2019-05-23T21:08:54.073Z,38.60
2019-05-23T21:13:58.443Z,38.40
2019-05-23T21:19:02.747Z,38.30
2019-05-23T21:24:07.165Z,38.80
